Time;durP1;ratioP1;P1;durP2;ratioP2;P2;SDS_P1;SDS_P2;PMS_P1;PMS_P2;Temp;Humidity;BMP_temperature;BMP_pressure;BME280_temperature;BME280_humidity;BME280_pressure;Samples;Min_cycle;Max_cycle;Signal;HPM_P1;HPM_P2
2023/05/31 00:01:02;;;;;;;;;;;13.50;79.00;;;;;;5035428;28;19917;-83
2023/05/31 00:03:27;;;;;;;;;;;13.50;79.10;;;;;;5039940;28;19913;-83
2023/05/31 00:05:53;;;;;;;;;;;13.60;78.80;;;;;;5029134;28;19965;-83
2023/05/31 00:08:18;;;;;;;;;;;13.60;78.30;;;;;;5040051;28;19909;-83
2023/05/31 00:10:44;;;;;;;;;;;13.60;78.90;;;;;;5032565;28;19923;-83
2023/05/31 00:13:09;;;;;;;;;;;13.60;78.70;;;;;;5019206;28;19913;-82
2023/05/31 00:15:35;;;;;;;;;;;13.40;79.00;;;;;;5036997;28;19920;-83
2023/05/31 00:18:00;;;;;;;;;;;13.30;79.20;;;;;;5035972;28;19995;-83
2023/05/31 00:20:26;;;;;;;;;;;13.30;79.50;;;;;;5064282;28;19917;-82
2023/05/31 00:22:51;;;;;;;;;;;13.20;79.70;;;;;;5039759;28;19920;-83
2023/05/31 00:25:17;;;;;;;;;;;13.20;79.80;;;;;;5034024;28;19919;-82
2023/05/31 00:27:42;;;;;;;;;;;13.20;80.00;;;;;;5035607;28;20295;-83
2023/05/31 00:30:08;;;;;;;;;;;13.30;79.70;;;;;;5030266;28;19919;-83
2023/05/31 00:32:33;;;;;;;;;;;13.30;79.70;;;;;;5034265;28;19952;-83
2023/05/31 00:34:59;;;;;;;;;;;13.30;80.10;;;;;;5022399;28;19945;-83
2023/05/31 00:37:24;;;;;;;;;;;13.30;79.90;;;;;;5036782;28;19914;-83
2023/05/31 00:39:49;;;;;;;;;;;13.20;80.00;;;;;;5028050;28;19921;-83
2023/05/31 00:42:16;;;;;;;;;;;13.20;80.00;;;;;;5030167;28;19921;-83
2023/05/31 00:44:41;;;;;;;;;;;13.20;79.90;;;;;;5031618;28;19920;-83
2023/05/31 00:47:07;;;;;;;;;;;13.20;80.00;;;;;;5037985;28;19917;-84
2023/05/31 00:49:32;;;;;;;;;;;13.10;80.10;;;;;;5038343;28;19916;-83
2023/05/31 00:51:58;;;;;;;;;;;13.00;80.20;;;;;;5037428;28;19957;-83
2023/05/31 00:54:24;;;;;;;;;;;13.10;80.50;;;;;;5041161;28;19917;-83
2023/05/31 00:56:49;;;;;;;;;;;13.00;80.20;;;;;;5056400;28;20353;-83
2023/05/31 00:59:15;;;;;;;;;;;13.10;80.30;;;;;;5035236;28;19931;-83
2023/05/31 01:01:41;;;;;;;;;;;13.10;80.40;;;;;;5043223;28;19913;-83
2023/05/31 01:04:07;;;;;;;;;;;13.10;80.20;;;;;;5039930;28;19913;-83
2023/05/31 01:06:34;;;;;;;;;;;13.10;80.30;;;;;;5038095;28;19913;-83
2023/05/31 01:09:04;;;;;;;;;;;13.00;80.70;;;;;;5037946;28;19937;-83
2023/05/31 01:11:49;;;;;;;;;;;13.00;80.50;;;;;;5034986;28;19917;-83
2023/05/31 01:14:28;;;;;;;;;;;13.00;80.80;;;;;;5038179;28;19913;-83
2023/05/31 01:16:57;;;;;;;;;;;13.00;80.90;;;;;;5040812;28;20445;-83
2023/05/31 01:19:33;;;;;;;;;;;13.00;81.10;;;;;;5032719;28;20350;-83
2023/05/31 01:22:14;;;;;;;;;;;13.00;80.90;;;;;;5036716;28;19913;-83
2023/05/31 01:24:48;;;;;;;;;;;12.90;80.70;;;;;;5042424;28;19917;-83
2023/05/31 01:27:15;;;;;;;;;;;13.10;80.20;;;;;;5029825;28;19956;-83
2023/05/31 01:29:42;;;;;;;;;;;13.00;80.50;;;;;;5065779;28;19913;-83
2023/05/31 01:32:08;;;;;;;;;;;12.90;80.80;;;;;;5034755;28;19992;-82
2023/05/31 01:34:33;;;;;;;;;;;12.90;81.00;;;;;;5031760;28;20038;-83
2023/05/31 01:36:59;;;;;;;;;;;12.80;81.00;;;;;;5034648;28;20410;-83
2023/05/31 01:39:25;;;;;;;;;;;12.80;81.40;;;;;;5034144;28;20554;-83
2023/05/31 01:41:51;;;;;;;;;;;12.80;81.10;;;;;;5038425;28;19921;-83
2023/05/31 01:44:18;;;;;;;;;;;12.80;81.20;;;;;;5034018;28;19920;-82
2023/05/31 01:46:44;;;;;;;;;;;12.90;80.90;;;;;;5030386;28;19909;-83
2023/05/31 01:49:10;;;;;;;;;;;12.90;80.80;;;;;;5034155;28;20393;-83
2023/05/31 01:51:36;;;;;;;;;;;12.80;81.10;;;;;;5032546;28;19959;-82
2023/05/31 01:54:02;;;;;;;;;;;12.70;81.20;;;;;;5033097;28;20003;-82
2023/05/31 01:56:30;;;;;;;;;;;12.60;81.50;;;;;;5037974;28;19993;-82
2023/05/31 01:58:57;;;;;;;;;;;12.60;81.50;;;;;;5031357;28;20374;-83
2023/05/31 02:01:23;;;;;;;;;;;12.60;81.70;;;;;;5041453;28;19914;-83
2023/05/31 02:03:49;;;;;;;;;;;12.80;81.10;;;;;;5031366;28;19971;-83
2023/05/31 02:06:14;;;;;;;;;;;12.70;81.40;;;;;;5031819;28;20008;-82
2023/05/31 02:08:42;;;;;;;;;;;12.70;81.40;;;;;;5028449;28;20379;-83
2023/05/31 02:11:08;;;;;;;;;;;12.60;81.50;;;;;;5032029;28;19923;-83
2023/05/31 02:13:33;;;;;;;;;;;12.50;82.00;;;;;;5033200;28;20362;-82
2023/05/31 02:15:59;;;;;;;;;;;12.50;82.00;;;;;;5028748;28;19967;-83
2023/05/31 02:18:29;;;;;;;;;;;12.50;81.90;;;;;;5059510;28;19920;-83
2023/05/31 02:20:54;;;;;;;;;;;12.50;82.10;;;;;;5030451;28;19921;-82
2023/05/31 02:23:20;;;;;;;;;;;12.50;81.90;;;;;;5032264;28;19917;-82
2023/05/31 02:25:46;;;;;;;;;;;12.40;82.10;;;;;;5030752;28;19921;-82
2023/05/31 02:28:12;;;;;;;;;;;12.40;82.10;;;;;;5063103;28;19909;-82
2023/05/31 02:30:38;;;;;;;;;;;12.30;82.30;;;;;;5025665;28;20012;-83
2023/05/31 02:33:04;;;;;;;;;;;12.30;82.30;;;;;;5021234;28;19909;-83
2023/05/31 02:35:30;;;;;;;;;;;12.30;82.50;;;;;;5035051;28;19992;-83
2023/05/31 02:37:55;;;;;;;;;;;12.30;82.70;;;;;;5031349;28;19952;-83
2023/05/31 02:40:21;;;;;;;;;;;12.30;82.20;;;;;;5039217;28;19917;-83
2023/05/31 02:42:46;;;;;;;;;;;12.30;82.20;;;;;;5025899;28;19920;-83
2023/05/31 02:45:12;;;;;;;;;;;12.20;82.40;;;;;;5039225;28;19913;-83
2023/05/31 02:47:38;;;;;;;;;;;12.30;82.40;;;;;;5038760;28;19913;-83
2023/05/31 02:50:05;;;;;;;;;;;12.30;82.30;;;;;;5042148;28;20000;-83
2023/05/31 02:52:30;;;;;;;;;;;12.30;82.60;;;;;;5044449;28;19966;-83
2023/05/31 02:54:56;;;;;;;;;;;12.30;82.40;;;;;;5040784;28;19924;-82
2023/05/31 02:57:21;;;;;;;;;;;12.20;82.50;;;;;;5042292;28;20518;-83
2023/05/31 02:59:48;;;;;;;;;;;12.20;82.60;;;;;;5054292;28;20572;-83
2023/05/31 03:02:14;;;;;;;;;;;12.20;82.70;;;;;;5071528;28;20548;-83
2023/05/31 03:04:41;;;;;;;;;;;12.20;83.00;;;;;;5038755;28;19917;-82
2023/05/31 03:07:07;;;;;;;;;;;12.10;83.00;;;;;;5039186;28;19920;-83
2023/05/31 03:09:32;;;;;;;;;;;12.10;83.10;;;;;;5038805;28;20004;-83
2023/05/31 03:11:58;;;;;;;;;;;12.10;83.20;;;;;;5039509;28;19969;-82
2023/05/31 03:14:23;;;;;;;;;;;12.10;83.00;;;;;;5039954;28;20363;-82
2023/05/31 03:16:50;;;;;;;;;;;12.10;82.80;;;;;;5040208;28;19913;-84
2023/05/31 03:19:22;;;;;;;;;;;12.10;82.40;;;;;;5030566;28;19925;-82
2023/05/31 03:21:47;;;;;;;;;;;12.10;82.50;;;;;;5056399;28;20353;-83
2023/05/31 03:24:13;;;;;;;;;;;12.10;82.20;;;;;;5047687;28;19922;-83
2023/05/31 03:26:38;;;;;;;;;;;12.00;82.30;;;;;;5034200;28;19917;-82
2023/05/31 03:29:03;;;;;;;;;;;12.00;82.60;;;;;;5039782;28;20003;-82
2023/05/31 03:31:29;;;;;;;;;;;12.00;82.80;;;;;;5024281;28;19918;-82
2023/05/31 03:33:54;;;;;;;;;;;11.80;83.30;;;;;;5033564;28;19913;-82
2023/05/31 03:36:20;;;;;;;;;;;11.80;83.50;;;;;;5032721;28;20010;-83
2023/05/31 03:38:46;;;;;;;;;;;11.80;83.90;;;;;;5036248;28;20025;-83
2023/05/31 03:41:11;;;;;;;;;;;11.80;83.90;;;;;;5036556;28;19913;-82
2023/05/31 03:43:36;;;;;;;;;;;11.90;83.60;;;;;;5034649;28;19963;-83
2023/05/31 03:46:02;;;;;;;;;;;11.90;83.70;;;;;;5035237;28;20379;-83
2023/05/31 03:48:28;;;;;;;;;;;11.90;83.70;;;;;;5038047;28;20344;-83
2023/05/31 03:50:53;;;;;;;;;;;11.90;83.60;;;;;;5041109;28;19909;-82
2023/05/31 03:53:19;;;;;;;;;;;11.90;83.40;;;;;;5046364;28;19920;-82
2023/05/31 03:55:46;;;;;;;;;;;12.00;83.20;;;;;;5039696;28;19909;-82
2023/05/31 03:58:12;;;;;;;;;;;12.00;83.50;;;;;;5038142;28;20295;-82
2023/05/31 04:00:38;;;;;;;;;;;12.00;83.10;;;;;;5044959;28;20046;-82
2023/05/31 04:03:03;;;;;;;;;;;12.00;83.40;;;;;;5031748;28;20042;-83
2023/05/31 04:05:29;;;;;;;;;;;12.00;83.70;;;;;;5041479;28;19913;-83
2023/05/31 04:07:54;;;;;;;;;;;12.00;83.70;;;;;;5030120;28;20383;-82
2023/05/31 04:10:20;;;;;;;;;;;12.00;83.50;;;;;;5031547;28;19971;-82
2023/05/31 04:12:45;;;;;;;;;;;12.00;83.70;;;;;;5035261;28;19916;-82
2023/05/31 04:15:11;;;;;;;;;;;12.10;83.50;;;;;;5034035;28;19913;-84
2023/05/31 04:17:36;;;;;;;;;;;12.10;83.50;;;;;;5035468;28;19915;-83
2023/05/31 04:20:07;;;;;;;;;;;12.10;83.50;;;;;;5037893;28;19960;-82
2023/05/31 04:22:33;;;;;;;;;;;12.10;83.50;;;;;;5031984;28;19936;-82
2023/05/31 04:24:58;;;;;;;;;;;12.20;83.30;;;;;;5033669;28;20635;-82
2023/05/31 04:27:25;;;;;;;;;;;12.20;83.20;;;;;;5040087;28;20320;-83
2023/05/31 04:29:51;;;;;;;;;;;12.20;83.40;;;;;;5039175;28;20016;-81
2023/05/31 04:32:17;;;;;;;;;;;12.30;83.30;;;;;;5035852;28;20010;-82
2023/05/31 04:34:42;;;;;;;;;;;12.30;83.20;;;;;;5050062;28;20408;-82
2023/05/31 04:37:08;;;;;;;;;;;12.30;83.00;;;;;;5036550;28;20299;-81
2023/05/31 04:39:34;;;;;;;;;;;12.40;82.90;;;;;;5035450;28;20008;-82
2023/05/31 04:41:59;;;;;;;;;;;12.50;83.00;;;;;;5036475;28;19967;-82
2023/05/31 04:44:26;;;;;;;;;;;12.60;83.20;;;;;;5034158;28;19936;-82
2023/05/31 04:46:51;;;;;;;;;;;12.70;82.20;;;;;;5031991;28;19923;-82
2023/05/31 04:49:17;;;;;;;;;;;12.60;82.60;;;;;;5029686;28;19910;-82
2023/05/31 04:51:42;;;;;;;;;;;12.70;82.70;;;;;;5027350;28;19913;-82
2023/05/31 04:54:08;;;;;;;;;;;12.80;82.60;;;;;;5035327;28;19909;-82
2023/05/31 04:56:33;;;;;;;;;;;12.80;82.70;;;;;;5034989;28;19983;-82
2023/05/31 04:58:59;;;;;;;;;;;12.90;82.20;;;;;;5078365;22;19916;-83
2023/05/31 05:01:26;;;;;;;;;;;13.00;81.70;;;;;;5058014;28;19945;-85
2023/05/31 05:03:54;;;;;;;;;;;13.00;81.80;;;;;;5032877;28;19917;-85
2023/05/31 05:06:24;;;;;;;;;;;13.10;81.90;;;;;;5035215;28;19999;-85
2023/05/31 05:08:55;;;;;;;;;;;13.20;81.90;;;;;;5025198;28;19916;-82
2023/05/31 05:11:32;;;;;;;;;;;13.30;81.50;;;;;;5025804;28;19913;-85
2023/05/31 05:14:00;;;;;;;;;;;13.40;81.00;;;;;;5017233;28;19975;-85
2023/05/31 05:16:28;;;;;;;;;;;13.50;80.10;;;;;;5021766;28;19913;-83
2023/05/31 05:18:53;;;;;;;;;;;13.60;80.20;;;;;;5008316;28;19921;-83
2023/05/31 05:21:19;;;;;;;;;;;13.60;80.20;;;;;;5017995;28;19913;-84
2023/05/31 05:23:44;;;;;;;;;;;13.60;80.40;;;;;;5010698;28;19913;-83
2023/05/31 05:26:11;;;;;;;;;;;13.90;79.50;;;;;;5042603;28;19921;-85
2023/05/31 05:28:36;;;;;;;;;;;13.80;80.00;;;;;;5027163;28;20374;-83
2023/05/31 05:31:03;;;;;;;;;;;13.90;79.90;;;;;;5037484;28;19910;-86
2023/05/31 05:33:34;;;;;;;;;;;13.90;79.90;;;;;;5026662;28;19984;-85
2023/05/31 05:36:10;;;;;;;;;;;14.00;80.00;;;;;;5016301;28;19914;-87
2023/05/31 05:38:36;;;;;;;;;;;14.10;78.80;;;;;;5018063;28;20008;-85
2023/05/31 05:41:01;;;;;;;;;;;14.10;79.10;;;;;;5027239;28;19931;-88
2023/05/31 05:43:35;;;;;;;;;;;14.20;78.20;;;;;;5018470;28;19920;-86
2023/05/31 05:46:00;;;;;;;;;;;14.40;78.00;;;;;;5012810;28;19968;-86
2023/05/31 05:48:26;;;;;;;;;;;14.40;78.30;;;;;;5019079;28;19913;-86
2023/05/31 05:50:51;;;;;;;;;;;14.40;78.20;;;;;;5019421;28;19913;-86
2023/05/31 05:53:17;;;;;;;;;;;14.50;78.70;;;;;;5027160;28;20282;-86
2023/05/31 05:55:52;;;;;;;;;;;14.60;79.30;;;;;;5017333;28;19967;-86
2023/05/31 05:58:21;;;;;;;;;;;14.60;79.00;;;;;;5016885;28;19913;-86
2023/05/31 06:00:51;;;;;;;;;;;14.50;79.00;;;;;;5013774;28;19925;-86
2023/05/31 06:03:17;;;;;;;;;;;14.60;78.10;;;;;;5034179;28;19909;-86
2023/05/31 06:05:42;;;;;;;;;;;14.60;77.00;;;;;;5017690;28;19909;-86
2023/05/31 06:08:10;;;;;;;;;;;14.50;78.10;;;;;;5016287;28;19963;-86
2023/05/31 06:10:36;;;;;;;;;;;14.50;79.20;;;;;;5018600;28;20004;-86
2023/05/31 06:13:07;;;;;;;;;;;14.50;79.20;;;;;;5020007;28;20393;-86
2023/05/31 06:15:42;;;;;;;;;;;14.60;78.60;;;;;;5014885;28;19949;-86
2023/05/31 06:18:10;;;;;;;;;;;14.60;78.90;;;;;;5014617;28;19952;-86
2023/05/31 06:20:36;;;;;;;;;;;14.60;79.30;;;;;;5006486;28;19917;-86
2023/05/31 06:23:01;;;;;;;;;;;14.60;79.70;;;;;;5025034;28;19920;-86
2023/05/31 06:25:42;;;;;;;;;;;14.60;77.80;;;;;;5033381;28;19916;-87
2023/05/31 06:28:17;;;;;;;;;;;14.70;79.10;;;;;;5039536;28;19901;-91
2023/05/31 06:30:45;;;;;;;;;;;14.80;77.40;;;;;;5035494;28;19922;-87
2023/05/31 06:39:17;;;;;;;;;;;15.10;77.50;;;;;;5035820;28;19923;-86
2023/05/31 06:41:43;;;;;;;;;;;15.10;76.60;;;;;;5023954;28;19945;-85
2023/05/31 06:44:15;;;;;;;;;;;15.20;76.60;;;;;;5016686;28;19913;-86
2023/05/31 06:46:46;;;;;;;;;;;15.30;76.80;;;;;;5013126;28;20306;-88
2023/05/31 06:49:28;;;;;;;;;;;15.30;77.00;;;;;;5019594;28;19917;-86
2023/05/31 06:52:02;;;;;;;;;;;15.50;76.50;;;;;;5032855;28;19948;-87
2023/05/31 06:54:28;;;;;;;;;;;15.50;76.20;;;;;;5026674;28;19913;-87
2023/05/31 06:56:57;;;;;;;;;;;15.60;77.10;;;;;;5013959;28;19979;-85
2023/05/31 06:59:23;;;;;;;;;;;15.60;76.40;;;;;;5048582;28;19925;-87
2023/05/31 07:01:48;;;;;;;;;;;15.60;76.00;;;;;;5020407;28;19914;-87
2023/05/31 07:04:25;;;;;;;;;;;15.70;75.60;;;;;;5014289;28;20322;-88
2023/05/31 07:06:50;;;;;;;;;;;15.70;75.80;;;;;;5018619;28;19919;-87
2023/05/31 07:09:16;;;;;;;;;;;15.80;75.20;;;;;;5020268;28;19913;-87
2023/05/31 07:11:43;;;;;;;;;;;15.80;75.00;;;;;;5011666;28;19913;-86
2023/05/31 07:14:09;;;;;;;;;;;15.80;74.80;;;;;;5010025;28;20239;-86
2023/05/31 07:16:34;;;;;;;;;;;15.90;74.70;;;;;;5029992;28;19917;-86
2023/05/31 07:19:00;;;;;;;;;;;16.00;74.40;;;;;;5013943;28;19948;-85
2023/05/31 07:21:25;;;;;;;;;;;16.00;75.40;;;;;;5027691;28;20351;-86
2023/05/31 07:24:20;;;;;;;;;;;16.20;72.80;;;;;;5011876;28;19913;-85
2023/05/31 07:27:28;;;;;;;;;;;16.30;74.00;;;;;;5023752;28;19924;-86
2023/05/31 07:29:53;;;;;;;;;;;16.30;72.90;;;;;;5040336;22;19925;-81
2023/05/31 07:32:19;;;;;;;;;;;16.30;73.40;;;;;;5009929;28;20004;-81
2023/05/31 07:34:44;;;;;;;;;;;16.40;72.80;;;;;;5037796;28;19909;-80
2023/05/31 07:37:10;;;;;;;;;;;16.40;71.90;;;;;;5021437;28;19920;-81
2023/05/31 07:39:35;;;;;;;;;;;16.40;72.80;;;;;;5027789;28;19921;-82
2023/05/31 07:42:01;;;;;;;;;;;16.50;73.10;;;;;;5048841;28;20004;-82
2023/05/31 07:44:27;;;;;;;;;;;16.60;72.40;;;;;;5024616;28;19910;-83
2023/05/31 07:46:52;;;;;;;;;;;16.70;71.90;;;;;;5022556;28;20045;-82
2023/05/31 07:49:18;;;;;;;;;;;16.80;71.60;;;;;;5028010;28;19917;-82
2023/05/31 07:51:43;;;;;;;;;;;16.80;71.10;;;;;;5047919;28;19924;-82
2023/05/31 07:54:09;;;;;;;;;;;17.00;72.10;;;;;;5040132;28;19909;-83
2023/05/31 07:56:34;;;;;;;;;;;17.10;72.40;;;;;;5021063;28;20003;-80
2023/05/31 07:59:00;;;;;;;;;;;17.10;71.40;;;;;;5037609;28;19924;-84
2023/05/31 08:01:26;;;;;;;;;;;17.10;71.90;;;;;;5020160;28;20292;-83
2023/05/31 08:03:53;;;;;;;;;;;17.20;71.60;;;;;;5024987;28;19917;-82
2023/05/31 08:06:19;;;;;;;;;;;17.30;70.80;;;;;;5033754;28;19913;-83
2023/05/31 08:08:44;;;;;;;;;;;17.50;69.10;;;;;;5026257;28;20375;-81
2023/05/31 08:11:10;;;;;;;;;;;17.60;69.80;;;;;;5041219;28;19968;-84
2023/05/31 08:13:36;;;;;;;;;;;17.70;69.40;;;;;;5037126;28;20360;-84
2023/05/31 08:16:01;;;;;;;;;;;17.80;68.10;;;;;;5007089;28;19924;-83
2023/05/31 08:18:27;;;;;;;;;;;17.80;66.40;;;;;;5023369;28;19909;-83
2023/05/31 08:20:52;;;;;;;;;;;17.70;68.00;;;;;;5035667;28;19917;-84
2023/05/31 08:23:18;;;;;;;;;;;17.90;68.20;;;;;;5017361;28;19948;-84
2023/05/31 08:25:44;;;;;;;;;;;17.90;66.80;;;;;;5012828;28;19913;-84
2023/05/31 08:28:09;;;;;;;;;;;18.00;66.80;;;;;;5007018;28;20004;-86
2023/05/31 08:30:37;;;;;;;;;;;18.00;67.50;;;;;;5018379;28;19917;-86
2023/05/31 08:33:05;;;;;;;;;;;18.00;66.00;;;;;;5001447;28;19914;-87
2023/05/31 08:35:31;;;;;;;;;;;18.10;66.20;;;;;;5011846;28;19992;-85
2023/05/31 08:37:57;;;;;;;;;;;18.30;64.60;;;;;;5016046;28;19957;-85
2023/05/31 08:40:23;;;;;;;;;;;18.30;64.90;;;;;;5024512;28;19918;-85
2023/05/31 08:42:55;;;;;;;;;;;18.30;61.70;;;;;;5033843;28;19917;-85
2023/05/31 08:45:20;;;;;;;;;;;18.50;60.90;;;;;;5020827;28;19917;-85
2023/05/31 08:47:51;;;;;;;;;;;18.40;63.30;;;;;;5018589;28;19913;-85
2023/05/31 08:50:17;;;;;;;;;;;18.50;66.30;;;;;;5018261;28;19922;-85
2023/05/31 08:52:45;;;;;;;;;;;18.60;63.80;;;;;;5035335;28;19917;-84
2023/05/31 08:55:11;;;;;;;;;;;18.60;62.80;;;;;;5036940;28;19913;-83
2023/05/31 08:57:37;;;;;;;;;;;18.80;62.50;;;;;;5020295;28;19920;-86
2023/05/31 09:00:08;;;;;;;;;;;18.80;64.80;;;;;;5041046;28;19932;-85
2023/05/31 09:02:33;;;;;;;;;;;18.80;64.30;;;;;;5021538;28;19913;-84
2023/05/31 09:04:59;;;;;;;;;;;18.90;64.90;;;;;;5026291;28;19917;-84
2023/05/31 09:07:24;;;;;;;;;;;19.10;63.70;;;;;;5038828;28;20290;-85
2023/05/31 09:09:50;;;;;;;;;;;19.10;60.40;;;;;;5018968;28;19909;-83
2023/05/31 09:12:15;;;;;;;;;;;19.20;60.10;;;;;;5020739;28;20331;-84
2023/05/31 09:14:41;;;;;;;;;;;19.30;61.90;;;;;;5028086;28;20343;-84
2023/05/31 09:17:07;;;;;;;;;;;19.20;62.50;;;;;;5021876;28;19940;-82
2023/05/31 09:19:32;;;;;;;;;;;19.20;62.00;;;;;;5033397;28;19924;-85
2023/05/31 09:21:58;;;;;;;;;;;19.30;63.00;;;;;;5006053;28;19929;-85
2023/05/31 09:24:23;;;;;;;;;;;19.20;61.40;;;;;;5015277;28;19920;-85
2023/05/31 09:26:49;;;;;;;;;;;19.30;64.00;;;;;;5016208;28;19980;-84
2023/05/31 09:29:17;;;;;;;;;;;19.60;60.80;;;;;;5024150;28;19925;-85
2023/05/31 09:31:43;;;;;;;;;;;19.70;59.70;;;;;;5022753;28;19913;-85
2023/05/31 09:34:29;;;;;;;;;;;19.70;60.00;;;;;;5022542;28;19918;-85
2023/05/31 09:37:01;;;;;;;;;;;19.60;60.00;;;;;;5018603;28;19920;-86
2023/05/31 09:39:27;;;;;;;;;;;19.60;59.40;;;;;;5011312;28;20297;-85
2023/05/31 09:41:53;;;;;;;;;;;19.60;58.00;;;;;;5018358;28;19932;-83
2023/05/31 09:44:18;;;;;;;;;;;19.80;57.70;;;;;;5020558;28;20284;-83
2023/05/31 09:46:45;;;;;;;;;;;19.80;58.50;;;;;;5025049;28;19920;-84
2023/05/31 09:49:10;;;;;;;;;;;19.80;56.70;;;;;;5020944;28;20384;-82
2023/05/31 09:51:36;;;;;;;;;;;19.80;59.30;;;;;;5012198;28;20003;-83
2023/05/31 09:54:13;;;;;;;;;;;20.00;57.90;;;;;;5032935;28;19924;-85
2023/05/31 09:56:40;;;;;;;;;;;20.10;55.80;;;;;;5016484;28;19934;-86
2023/05/31 09:59:06;;;;;;;;;;;20.20;55.50;;;;;;5018067;28;20059;-85
2023/05/31 10:01:32;;;;;;;;;;;20.10;56.40;;;;;;5021502;28;20507;-85
2023/05/31 10:03:59;;;;;;;;;;;20.10;55.90;;;;;;5017734;28;19959;-85
2023/05/31 10:06:24;;;;;;;;;;;20.20;54.30;;;;;;5031248;28;19970;-86
2023/05/31 10:08:50;;;;;;;;;;;20.40;51.90;;;;;;5040194;28;19931;-86
2023/05/31 10:11:17;;;;;;;;;;;20.30;54.50;;;;;;5046060;28;19931;-84
2023/05/31 10:13:44;;;;;;;;;;;20.40;50.30;;;;;;5017870;28;19913;-84
2023/05/31 10:16:10;;;;;;;;;;;20.50;51.90;;;;;;5016049;28;19924;-86
2023/05/31 10:18:37;;;;;;;;;;;20.50;50.70;;;;;;5034116;28;19913;-84
2023/05/31 10:21:10;;;;;;;;;;;20.50;52.60;;;;;;5034149;28;20300;-84
2023/05/31 10:23:41;;;;;;;;;;;20.70;46.10;;;;;;5025993;28;19995;-84
2023/05/31 10:26:20;;;;;;;;;;;20.90;50.60;;;;;;5014566;28;19913;-85
2023/05/31 10:28:53;;;;;;;;;;;21.00;52.30;;;;;;5002534;28;19921;-86
2023/05/31 10:31:21;;;;;;;;;;;21.00;50.70;;;;;;5024763;28;19976;-86
2023/05/31 10:33:48;;;;;;;;;;;21.00;48.20;;;;;;5034116;28;19909;-84
2023/05/31 10:36:14;;;;;;;;;;;20.90;49.30;;;;;;5017494;28;20403;-85
2023/05/31 10:38:49;;;;;;;;;;;21.00;48.50;;;;;;5032010;28;19913;-83
2023/05/31 10:41:16;;;;;;;;;;;21.20;47.80;;;;;;5032605;28;20717;-84
2023/05/31 10:44:04;;;;;;;;;;;21.40;48.70;;;;;;5033090;28;19996;-83
2023/05/31 10:46:32;;;;;;;;;;;21.50;46.40;;;;;;5040024;28;19916;-82
2023/05/31 10:48:58;;;;;;;;;;;21.30;45.60;;;;;;5032776;28;19974;-83
2023/05/31 10:51:40;;;;;;;;;;;21.40;48.70;;;;;;5023536;28;19917;-84
2023/05/31 10:54:06;;;;;;;;;;;21.30;47.50;;;;;;5047849;28;20607;-84
2023/05/31 10:56:32;;;;;;;;;;;21.40;49.10;;;;;;5057161;28;19916;-87
2023/05/31 10:58:57;;;;;;;;;;;21.40;47.40;;;;;;5048141;22;19950;-83
2023/05/31 11:01:27;;;;;;;;;;;21.50;48.70;;;;;;5079651;28;19919;-83
2023/05/31 11:03:53;;;;;;;;;;;21.60;46.70;;;;;;5089825;28;20297;-83
2023/05/31 11:06:23;;;;;;;;;;;21.40;46.30;;;;;;5095800;28;19908;-83
2023/05/31 11:09:00;;;;;;;;;;;21.30;47.40;;;;;;5084992;28;19909;-83
2023/05/31 11:11:32;;;;;;;;;;;21.40;48.70;;;;;;5090508;28;19990;-84
2023/05/31 11:13:58;;;;;;;;;;;21.50;48.40;;;;;;5087462;28;20383;-83
2023/05/31 11:16:25;;;;;;;;;;;21.50;47.60;;;;;;5082673;28;19912;-83
2023/05/31 11:19:01;;;;;;;;;;;21.60;48.40;;;;;;5085993;28;19948;-83
2023/05/31 11:21:56;;;;;;;;;;;21.50;47.50;;;;;;5063325;28;19917;-83
2023/05/31 11:24:25;;;;;;;;;;;21.50;48.30;;;;;;5052714;28;20396;-83
2023/05/31 11:27:00;;;;;;;;;;;21.50;48.60;;;;;;5075666;28;19935;-83
2023/05/31 11:29:44;;;;;;;;;;;21.50;47.80;;;;;;5073575;28;19912;-83
2023/05/31 11:32:09;;;;;;;;;;;21.70;47.60;;;;;;5074612;28;19952;-83
2023/05/31 11:34:47;;;;;;;;;;;21.70;48.00;;;;;;5071610;28;19979;-84
2023/05/31 11:37:13;;;;;;;;;;;21.80;48.00;;;;;;5075871;28;19919;-83
2023/05/31 11:39:42;;;;;;;;;;;21.90;46.90;;;;;;5083526;28;20290;-83
2023/05/31 11:42:08;;;;;;;;;;;21.90;47.40;;;;;;5078220;28;19908;-83
2023/05/31 11:44:35;;;;;;;;;;;21.80;43.90;;;;;;5077111;28;19930;-84
2023/05/31 11:47:04;;;;;;;;;;;21.70;47.20;;;;;;5076776;28;19956;-83
2023/05/31 11:49:30;;;;;;;;;;;21.80;46.70;;;;;;5081703;28;20373;-83
2023/05/31 11:51:56;;;;;;;;;;;22.00;46.80;;;;;;5076285;28;20493;-86
2023/05/31 11:54:29;;;;;;;;;;;22.10;47.20;;;;;;5068740;28;19916;-84
2023/05/31 11:57:06;;;;;;;;;;;22.10;49.30;;;;;;5064377;28;19912;-84
2023/05/31 11:59:32;;;;;;;;;;;22.10;48.30;;;;;;5065137;28;19952;-84
2023/05/31 12:01:59;;;;;;;;;;;22.00;48.80;;;;;;5062810;28;19913;-84
2023/05/31 12:04:31;;;;;;;;;;;22.00;46.10;;;;;;5078046;28;19980;-85
2023/05/31 12:06:57;;;;;;;;;;;22.10;48.10;;;;;;5071682;28;19912;-84
2023/05/31 12:09:26;;;;;;;;;;;22.00;51.50;;;;;;5061640;28;19912;-84
2023/05/31 12:11:52;;;;;;;;;;;22.10;49.40;;;;;;5077901;28;19917;-86
2023/05/31 12:14:18;;;;;;;;;;;22.10;48.90;;;;;;5069862;28;19969;-86
2023/05/31 12:16:44;;;;;;;;;;;22.20;46.10;;;;;;5065949;28;19912;-87
2023/05/31 12:19:13;;;;;;;;;;;22.20;44.60;;;;;;5061728;28;20000;-87
2023/05/31 12:21:38;;;;;;;;;;;22.30;44.80;;;;;;5069098;28;20007;-86
2023/05/31 12:24:10;;;;;;;;;;;22.30;46.00;;;;;;5064662;28;20039;-85
2023/05/31 12:26:37;;;;;;;;;;;22.40;48.30;;;;;;5068916;28;19928;-88
2023/05/31 12:29:03;;;;;;;;;;;22.40;47.90;;;;;;5066430;28;19981;-87
2023/05/31 12:31:32;;;;;;;;;;;22.30;46.30;;;;;;5068439;28;20448;-85
2023/05/31 12:34:01;;;;;;;;;;;22.20;46.30;;;;;;5076496;28;19927;-87
2023/05/31 12:36:27;;;;;;;;;;;22.20;47.40;;;;;;5063340;28;19917;-85
2023/05/31 12:38:54;;;;;;;;;;;22.30;49.60;;;;;;5061900;28;19920;-86
2023/05/31 12:41:21;;;;;;;;;;;22.50;46.20;;;;;;5068504;28;19920;-86
2023/05/31 12:43:46;;;;;;;;;;;22.40;48.10;;;;;;5071322;28;20354;-87
2023/05/31 12:46:15;;;;;;;;;;;22.50;47.20;;;;;;5058441;28;19917;-84
2023/05/31 12:48:50;;;;;;;;;;;22.50;46.00;;;;;;5062306;28;19952;-85
2023/05/31 12:51:22;;;;;;;;;;;22.50;46.30;;;;;;5068449;28;19920;-84
2023/05/31 12:53:47;;;;;;;;;;;22.60;46.40;;;;;;5070503;28;19916;-85
2023/05/31 12:56:13;;;;;;;;;;;22.50;46.40;;;;;;5072940;28;19920;-85
2023/05/31 12:58:38;;;;;;;;;;;22.60;46.50;;;;;;5061633;28;20384;-85
2023/05/31 13:01:05;;;;;;;;;;;22.60;46.90;;;;;;5066507;28;19916;-85
2023/05/31 13:03:30;;;;;;;;;;;22.60;46.90;;;;;;5065087;28;19917;-85
2023/05/31 13:05:56;;;;;;;;;;;22.60;48.20;;;;;;5066132;28;20382;-85
2023/05/31 13:08:21;;;;;;;;;;;22.70;47.40;;;;;;5058081;28;19913;-86
2023/05/31 13:10:47;;;;;;;;;;;22.60;46.90;;;;;;5062442;28;19909;-85
2023/05/31 13:13:12;;;;;;;;;;;22.70;47.50;;;;;;5069018;28;20003;-85
2023/05/31 13:15:38;;;;;;;;;;;22.50;48.80;;;;;;5060966;28;19958;-86
2023/05/31 13:18:03;;;;;;;;;;;22.50;47.20;;;;;;5069387;28;20378;-86
2023/05/31 13:20:29;;;;;;;;;;;22.60;46.70;;;;;;5068676;28;19920;-85
2023/05/31 13:22:54;;;;;;;;;;;22.60;48.30;;;;;;5071846;28;19944;-84
2023/05/31 13:25:20;;;;;;;;;;;22.70;48.20;;;;;;5061064;28;19916;-85
2023/05/31 13:27:45;;;;;;;;;;;22.80;49.40;;;;;;5071891;28;20638;-85
2023/05/31 13:30:12;;;;;;;;;;;22.80;48.00;;;;;;5070886;28;20362;-85
2023/05/31 13:32:40;;;;;;;;;;;22.80;48.60;;;;;;5067506;28;19915;-84
2023/05/31 13:35:08;;;;;;;;;;;22.80;47.50;;;;;;5065426;28;19935;-86
2023/05/31 13:37:33;;;;;;;;;;;22.90;45.80;;;;;;5057877;28;19923;-85
2023/05/31 13:39:59;;;;;;;;;;;22.80;47.20;;;;;;5061781;28;19916;-85
2023/05/31 13:42:24;;;;;;;;;;;23.00;46.60;;;;;;5057111;28;20006;-85
2023/05/31 13:44:50;;;;;;;;;;;22.90;47.10;;;;;;5072899;28;19912;-88
2023/05/31 13:47:16;;;;;;;;;;;23.00;48.50;;;;;;5066117;28;19923;-86
2023/05/31 13:49:41;;;;;;;;;;;23.10;50.40;;;;;;5063560;28;20028;-84
2023/05/31 13:52:09;;;;;;;;;;;23.10;46.70;;;;;;5057728;28;19989;-85
2023/05/31 13:54:38;;;;;;;;;;;23.10;46.60;;;;;;5065603;28;19913;-84
2023/05/31 13:57:03;;;;;;;;;;;23.00;49.50;;;;;;5065358;28;19920;-84
2023/05/31 13:59:29;;;;;;;;;;;23.10;48.70;;;;;;5074181;28;20020;-84
2023/05/31 14:02:09;;;;;;;;;;;23.10;49.80;;;;;;5132695;27;19916;-81
2023/05/31 14:04:35;;;;;;;;;;;23.10;48.10;;;;;;5102097;28;19922;-84
2023/05/31 14:07:03;;;;;;;;;;;23.30;48.00;;;;;;5097010;28;19934;-84
2023/05/31 14:09:28;;;;;;;;;;;23.50;44.70;;;;;;5100374;28;20374;-84
2023/05/31 14:11:55;;;;;;;;;;;23.40;45.80;;;;;;5101535;28;19919;-82
2023/05/31 14:14:20;;;;;;;;;;;23.30;44.90;;;;;;5099858;28;20337;-81
2023/05/31 14:16:46;;;;;;;;;;;23.20;45.10;;;;;;5105260;28;19999;-82
2023/05/31 14:19:11;;;;;;;;;;;23.20;46.00;;;;;;5106970;28;19919;-82
2023/05/31 14:21:37;;;;;;;;;;;23.30;46.00;;;;;;5101566;28;20394;-83
2023/05/31 14:24:03;;;;;;;;;;;23.30;45.80;;;;;;5099009;28;19920;-84